createdAt,value
2024-05-09T00:03:47.807Z,45.8436
2024-05-09T00:13:58.830Z,45.8431
2024-05-09T00:24:09.664Z,45.8442
2024-05-09T00:34:20.686Z,45.8317
2024-05-09T00:44:31.802Z,45.8250
2024-05-09T00:54:42.707Z,45.8183
2024-05-09T01:04:53.695Z,45.8153
2024-05-09T01:15:04.476Z,45.8119
2024-05-09T01:25:15.383Z,45.8097
2024-05-09T01:35:26.206Z,45.8067
2024-05-09T01:45:37.030Z,45.8050
2024-05-09T01:55:47.979Z,45.8022
2024-05-09T02:05:58.637Z,45.7983
2024-05-09T02:16:09.569Z,45.7989
2024-05-09T02:26:20.356Z,45.7983
2024-05-09T02:36:30.913Z,45.7961
2024-05-09T02:46:41.793Z,45.7961
2024-05-09T02:56:52.527Z,45.7928
2024-05-09T03:07:03.204Z,45.7989
2024-05-09T03:17:14.046Z,45.8011
2024-05-09T03:27:24.779Z,45.7956
2024-05-09T03:37:36.087Z,45.7914
2024-05-09T03:47:47.134Z,45.7875
2024-05-09T03:57:58.132Z,45.7800
2024-05-09T04:08:09.049Z,45.7592
2024-05-09T04:18:19.871Z,45.7539
2024-05-09T04:28:30.526Z,45.7536
2024-05-09T04:38:41.193Z,45.7500
2024-05-09T04:48:52.172Z,45.7492
2024-05-09T04:59:02.788Z,45.7519
2024-05-09T05:09:13.799Z,45.7522
2024-05-09T05:19:24.436Z,45.7481
2024-05-09T05:29:38.101Z,45.7523
2024-05-09T05:39:48.631Z,45.7486
2024-05-09T05:49:59.442Z,45.7489
2024-05-09T06:00:10.001Z,45.7478
2024-05-09T06:10:26.413Z,45.7433
2024-05-09T06:20:39.214Z,45.7400
2024-05-09T06:30:49.606Z,45.7350
2024-05-09T06:40:59.817Z,45.7436
2024-05-09T06:51:09.954Z,45.7450
2024-05-09T07:01:20.091Z,45.7411
2024-05-09T07:11:30.182Z,45.7378
2024-05-09T07:21:40.331Z,45.7372
2024-05-09T07:31:50.553Z,45.7383
2024-05-09T07:42:00.689Z,45.7372
2024-05-09T07:53:29.182Z,45.7333
2024-05-09T08:02:26.891Z,45.7372
2024-05-09T08:12:36.807Z,45.7389
2024-05-09T08:22:46.765Z,45.7428
2024-05-09T08:32:56.676Z,45.7428
2024-05-09T08:43:06.905Z,45.7400
2024-05-09T08:53:16.833Z,45.7478
2024-05-09T09:03:26.589Z,45.7483
2024-05-09T09:13:36.734Z,45.7436
2024-05-09T09:23:46.713Z,45.7403
2024-05-09T09:33:56.802Z,45.7383
2024-05-09T09:44:06.810Z,45.7422
2024-05-09T09:54:16.399Z,45.7394
2024-05-09T10:04:26.201Z,45.7461
2024-05-09T10:14:35.590Z,45.7519
2024-05-09T10:24:44.711Z,45.7508
2024-05-09T10:34:54.690Z,45.7506
2024-05-09T10:45:03.762Z,45.7456
2024-05-09T10:55:13.086Z,45.7417
2024-05-09T11:05:22.696Z,45.7483
2024-05-09T11:15:31.993Z,45.7522
2024-05-09T11:25:41.187Z,45.7542
2024-05-09T11:35:50.145Z,45.7553
2024-05-09T11:45:59.181Z,45.7594
2024-05-09T11:56:08.401Z,45.7558
2024-05-09T12:06:17.838Z,45.7472
2024-05-09T12:16:26.960Z,45.7503
2024-05-09T12:26:35.993Z,45.7422
2024-05-09T12:36:45.250Z,45.7433
2024-05-09T12:46:54.724Z,45.7428
2024-05-09T12:57:03.539Z,45.7378
2024-05-09T13:07:12.429Z,45.7314
2024-05-09T13:17:21.434Z,45.7278
2024-05-09T13:27:30.629Z,45.7242
2024-05-09T13:37:39.450Z,45.7233
2024-05-09T13:47:48.573Z,45.7258
2024-05-09T13:57:57.473Z,45.7250
2024-05-09T14:08:06.455Z,45.7211
2024-05-09T14:18:15.580Z,45.7181
2024-05-09T14:28:24.805Z,45.7111
2024-05-09T14:38:34.054Z,45.7056
2024-05-09T14:48:43.371Z,45.7011
2024-05-09T14:58:52.832Z,45.6833
2024-05-09T15:09:01.966Z,45.6781
2024-05-09T15:19:11.903Z,45.6681
2024-05-09T15:29:21.131Z,45.6664
2024-05-09T15:39:30.422Z,45.6658
2024-05-09T15:49:39.858Z,45.6658
2024-05-09T15:59:49.201Z,45.6664
2024-05-09T16:09:58.479Z,45.6622
2024-05-09T16:20:12.264Z,45.6578
2024-05-09T16:30:31.515Z,45.6522
2024-05-09T16:40:41.019Z,45.6292
2024-05-09T16:50:51.211Z,45.6025
2024-05-09T17:01:00.824Z,45.5656
2024-05-09T17:11:10.785Z,45.5275
2024-05-09T17:21:21.176Z,45.5056
2024-05-09T17:31:31.234Z,45.4322
2024-05-09T17:41:41.175Z,44.5122
2024-05-09T17:51:51.088Z,44.1375
2024-05-09T18:02:01.089Z,43.9903
2024-05-09T18:12:12.024Z,43.9108
2024-05-09T18:22:22.162Z,43.8628
2024-05-09T18:32:32.249Z,43.8267
2024-05-09T18:42:42.424Z,43.8058
2024-05-09T18:52:52.540Z,43.7781
2024-05-09T19:03:03.317Z,43.7583
2024-05-09T19:13:14.494Z,43.7481
2024-05-09T19:23:25.399Z,43.7411
2024-05-09T19:33:35.818Z,43.7350
2024-05-09T19:43:46.373Z,43.7189
2024-05-09T19:53:57.192Z,43.7125
2024-05-09T20:04:07.827Z,43.7017
2024-05-09T20:14:18.648Z,43.6897
2024-05-09T20:24:29.486Z,43.6847
2024-05-09T20:34:40.343Z,43.6797
2024-05-09T20:44:51.233Z,43.6742
2024-05-09T20:55:02.132Z,43.6675
2024-05-09T21:05:13.355Z,43.6606
2024-05-09T21:15:24.208Z,43.6589
2024-05-09T21:25:35.129Z,43.6550
2024-05-09T21:35:45.968Z,43.6458
2024-05-09T21:45:56.856Z,43.6414
2024-05-09T21:56:07.749Z,43.6322
2024-05-09T22:06:18.621Z,43.6222
2024-05-09T22:16:29.615Z,43.6189
2024-05-09T22:26:40.532Z,43.6136
2024-05-09T22:36:51.294Z,43.6053
2024-05-09T22:47:02.267Z,43.5814
2024-05-09T22:57:13.317Z,43.5744
2024-05-09T23:07:24.240Z,43.5700
2024-05-09T23:17:35.328Z,43.5606
2024-05-09T23:27:46.326Z,43.5364
2024-05-09T23:37:57.509Z,43.5158
2024-05-09T23:48:08.789Z,43.5106
2024-05-09T23:58:20.101Z,43.5042
